Time;durP1;ratioP1;P1;durP2;ratioP2;P2;SDS_P1;SDS_P2;PMS_P1;PMS_P2;Temp;Humidity;BMP_temperature;BMP_pressure;BME280_temperature;BME280_humidity;BME280_pressure;Samples;Min_cycle;Max_cycle;Signal;HPM_P1;HPM_P2
2021/06/13 00:02:23;;;;;;;12.63;6.87;;;16.10;99.90;;;;;;5013478;28;20484;-86
2021/06/13 00:04:49;;;;;;;9.37;7.00;;;16.00;99.90;;;;;;5013840;28;20483;-86
2021/06/13 00:07:17;;;;;;;7.20;6.50;;;16.30;99.90;;;;;;5009283;28;20480;-88
2021/06/13 00:09:43;;;;;;;7.37;6.67;;;16.00;99.90;;;;;;5012316;28;20452;-87
2021/06/13 00:12:11;;;;;;;7.50;6.67;;;16.20;99.90;;;;;;5013666;28;20507;-87
2021/06/13 00:14:38;;;;;;;7.60;6.20;;;16.30;99.90;;;;;;5013640;28;20457;-86
2021/06/13 00:17:07;;;;;;;7.10;6.40;;;16.60;99.90;;;;;;5008284;28;20479;-85
2021/06/13 00:19:35;;;;;;;7.77;6.30;;;16.40;99.90;;;;;;5012268;28;20471;-86
2021/06/13 00:22:02;;;;;;;7.60;6.73;;;;;;;;;;5013190;28;20458;-91
2021/06/13 00:24:28;;;;;;;8.17;6.83;;;;;;;;;;5011968;28;20467;-86
2021/06/13 00:26:56;;;;;;;7.80;7.10;;;;;;;;;;5013358;28;20448;-86
2021/06/13 00:29:22;;;;;;;7.70;6.90;;;;;;;;;;5013495;28;20459;-86
2021/06/13 00:31:49;;;;;;;7.50;6.73;;;16.90;99.90;;;;;;5013193;28;20838;-87
2021/06/13 00:34:16;;;;;;;9.67;6.23;;;;;;;;;;5010158;28;20975;-89
2021/06/13 00:36:44;;;;;;;7.40;6.70;;;16.60;99.90;;;;;;5006381;28;20445;-87
2021/06/13 00:39:10;;;;;;;8.07;7.27;;;;;;;;;;5011914;28;20506;-87
2021/06/13 00:41:37;;;;;;;7.30;6.10;;;16.90;99.90;;;;;;4974883;28;20445;-86
2021/06/13 00:44:03;;;;;;;8.67;7.00;;;16.60;99.90;;;;;;5010318;28;20457;-87
2021/06/13 00:46:30;;;;;;;7.10;6.40;;;;;;;;;;5009958;28;20467;-85
2021/06/13 00:48:57;;;;;;;10.23;7.40;;;;;;;;;;5013045;28;20867;-86
2021/06/13 00:51:23;;;;;;;7.30;6.60;;;16.90;99.90;;;;;;5013107;28;20487;-87
2021/06/13 00:53:51;;;;;;;8.53;7.00;;;17.00;99.90;;;;;;5011836;28;20510;-86
2021/06/13 00:56:17;;;;;;;9.20;6.50;;;16.90;99.90;;;;;;5013401;28;20938;-87
2021/06/13 00:58:44;;;;;;;6.77;6.00;;;16.60;99.90;;;;;;5012858;28;20455;-85
2021/06/13 01:01:11;;;;;;;9.10;6.50;;;;;;;;;;5010134;28;20951;-87
2021/06/13 01:03:37;;;;;;;7.53;6.83;;;16.70;99.90;;;;;;5008857;28;20495;-87
2021/06/13 01:06:05;;;;;;;7.00;6.30;;;;;;;;;;5009053;28;20441;-88
2021/06/13 01:08:42;;;;;;;7.23;6.53;;;16.60;99.90;;;;;;5011473;28;20484;-86
2021/06/13 01:11:17;;;;;;;12.00;7.27;;;16.70;99.90;;;;;;5009858;28;20553;-86
2021/06/13 01:13:50;;;;;;;7.30;6.50;;;16.80;99.90;;;;;;5008949;28;20851;-87
2021/06/13 01:16:27;;;;;;;7.47;6.67;;;16.70;99.90;;;;;;5013048;28;20448;-86
2021/06/13 01:19:00;;;;;;;7.50;6.70;;;16.50;99.90;;;;;;5011068;28;20448;-87
2021/06/13 01:21:33;;;;;;;8.43;6.80;;;16.70;99.90;;;;;;5012986;28;20456;-87
2021/06/13 01:24:22;;;;;;;6.60;6.00;;;16.60;99.90;;;;;;5011643;28;20451;-87
2021/06/13 01:27:04;;;;;;;6.80;6.07;;;16.80;99.90;;;;;;5012932;28;20503;-86
2021/06/13 01:29:34;;;;;;;8.13;6.50;;;16.30;99.90;;;;;;5012967;28;20459;-86
2021/06/13 01:32:05;;;;;;;9.67;6.37;;;16.20;99.90;;;;;;5012377;28;20488;-87
2021/06/13 01:34:35;;;;;;;9.77;7.60;;;16.40;99.90;;;;;;4982257;28;20452;-87
2021/06/13 01:37:04;;;;;;;7.63;6.83;;;16.30;99.90;;;;;;5016637;28;21010;-86
2021/06/13 01:39:33;;;;;;;8.13;6.20;;;16.20;99.90;;;;;;5015400;28;20459;-87
2021/06/13 01:42:00;;;;;;;7.57;6.10;;;16.10;99.90;;;;;;5016380;28;20474;-87
2021/06/13 01:44:28;;;;;;;11.33;7.40;;;16.10;99.90;;;;;;5012799;28;20510;-86
2021/06/13 01:46:59;;;;;;;8.27;7.00;;;16.10;99.90;;;;;;5016845;28;20480;-87
2021/06/13 01:49:25;;;;;;;13.50;7.00;;;;;;;;;;5013667;28;20467;-87
2021/06/13 01:51:52;;;;;;;10.60;7.67;;;;;;;;;;5012882;28;20488;-88
2021/06/13 01:54:20;;;;;;;10.27;6.60;;;15.70;99.90;;;;;;5011755;28;20475;-86
2021/06/13 01:56:49;;;;;;;9.83;7.80;;;15.80;99.90;;;;;;5018103;28;20445;-88
2021/06/13 01:59:17;;;;;;;8.00;6.37;;;15.50;99.90;;;;;;5019683;28;20452;-87
2021/06/13 02:01:45;;;;;;;8.20;7.40;;;15.70;99.90;;;;;;5015583;28;20448;-87
2021/06/13 02:04:13;;;;;;;12.10;7.00;;;15.80;99.90;;;;;;5014533;28;20440;-88
2021/06/13 02:06:43;;;;;;;9.90;6.40;;;15.80;99.90;;;;;;5016371;28;20530;-87
2021/06/13 02:09:12;;;;;;;7.70;6.63;;;15.80;99.90;;;;;;5014410;28;20449;-87
2021/06/13 02:11:42;;;;;;;7.50;6.73;;;15.70;99.90;;;;;;5011366;28;20491;-87
2021/06/13 02:14:09;;;;;;;7.73;6.33;;;15.90;99.90;;;;;;5010280;28;20448;-88
2021/06/13 02:16:38;;;;;;;7.43;6.53;;;15.80;99.90;;;;;;5015251;28;20460;-87
2021/06/13 02:19:05;;;;;;;9.43;6.83;;;;;;;;;;5010416;28;20445;-87
2021/06/13 02:21:35;;;;;;;7.47;6.77;;;15.80;99.90;;;;;;5015754;28;20440;-88
2021/06/13 02:24:02;;;;;;;10.63;6.80;;;15.70;99.90;;;;;;5008702;28;20432;-87
2021/06/13 02:26:30;;;;;;;13.50;6.90;;;15.60;99.90;;;;;;5015359;28;20507;-88
2021/06/13 02:28:59;;;;;;;10.10;7.37;;;15.60;99.90;;;;;;5010963;28;20444;-85
2021/06/13 02:31:39;;;;;;;9.03;6.13;;;15.50;99.90;;;;;;5010074;28;20484;-87
2021/06/13 02:34:19;;;;;;;9.03;6.90;;;15.50;99.90;;;;;;5010350;28;20444;-89
2021/06/13 02:36:49;;;;;;;8.40;6.50;;;15.40;99.90;;;;;;5013538;28;20488;-86
2021/06/13 02:39:16;;;;;;;6.70;6.07;;;;;;;;;;5013462;28;20449;-86
2021/06/13 02:41:43;;;;;;;8.67;6.00;;;;;;;;;;5013732;28;20867;-87
2021/06/13 02:44:14;;;;;;;7.10;6.37;;;;;;;;;;5014831;28;20449;-85
2021/06/13 02:46:40;;;;;;;7.77;6.30;;;;;;;;;;5012084;28;20441;-87
2021/06/13 02:49:08;;;;;;;8.90;6.03;;;14.90;99.90;;;;;;5014936;28;20448;-89
2021/06/13 02:51:38;;;;;;;7.53;6.33;;;15.00;99.90;;;;;;5012160;28;20472;-87
2021/06/13 02:54:11;;;;;;;8.20;6.47;;;15.00;99.90;;;;;;5013882;28;20441;-85
2021/06/13 02:56:46;;;;;;;6.93;6.23;;;15.20;99.90;;;;;;5012084;28;20445;-90
2021/06/13 02:59:47;;;;;;;7.60;6.17;;;15.10;99.90;;;;;;5011043;28;20436;-88
2021/06/13 03:02:18;;;;;;;9.47;6.43;;;15.10;99.90;;;;;;5014165;28;20788;-88
2021/06/13 03:04:52;;;;;;;14.80;6.10;;;15.10;99.90;;;;;;5014815;28;20444;-89
2021/06/13 03:07:22;;;;;;;8.07;6.37;;;15.20;99.90;;;;;;5012246;28;20478;-88
2021/06/13 03:09:53;;;;;;;7.90;7.10;;;;;;;;;;5013930;28;20452;-89
2021/06/13 03:12:20;;;;;;;8.80;6.13;;;;;;;;;;5010775;28;20495;-88
2021/06/13 03:14:55;;;;;;;7.30;6.00;;;14.70;99.90;;;;;;5014898;28;20520;-87
2021/06/13 03:17:25;;;;;;;7.27;6.50;;;15.40;99.90;;;;;;5008913;28;20440;-87
2021/06/13 03:19:52;;;;;;;7.97;5.70;;;;;;;;;;5011237;28;20432;-86
2021/06/13 03:22:22;;;;;;;8.50;6.00;;;15.30;99.90;;;;;;4964477;28;20955;-87
2021/06/13 03:25:10;;;;;;;7.93;6.87;;;15.60;99.90;;;;;;5013414;28;20443;-88
2021/06/13 03:27:39;;;;;;;9.13;5.70;;;;;;;;;;5011032;28;20792;-90
2021/06/13 03:30:08;;;;;;;7.33;5.90;;;;;;;;;;5015120;28;20842;-88
2021/06/13 03:32:43;;;;;;;6.50;5.80;;;;;;;;;;5014874;28;20492;-88
2021/06/13 03:35:11;;;;;;;9.00;5.50;;;15.40;99.90;;;;;;5012419;28;20507;-87
2021/06/13 03:37:39;;;;;;;7.80;5.80;;;15.30;99.90;;;;;;5004385;28;20441;-86
2021/06/13 03:40:09;;;;;;;7.40;5.90;;;15.50;99.90;;;;;;5010086;28;20441;-85
2021/06/13 03:42:37;;;;;;;10.63;6.33;;;;;;;;;;5010767;28;20518;-85
2021/06/13 03:45:05;;;;;;;8.20;6.00;;;15.60;99.90;;;;;;5013926;28;20472;-84
2021/06/13 03:47:33;;;;;;;6.40;4.70;;;;;;;;;;5013729;28;20449;-86
2021/06/13 03:50:01;;;;;;;6.73;5.00;;;15.60;99.90;;;;;;5011056;28;20440;-86
2021/06/13 03:52:28;;;;;;;6.10;5.20;;;;;;;;;;5014678;28;20515;-88
2021/06/13 03:54:56;;;;;;;8.17;6.07;;;15.40;99.90;;;;;;5013219;28;20510;-86
2021/06/13 03:57:26;;;;;;;5.77;5.17;;;15.10;99.90;;;;;;5010093;28;20452;-85
2021/06/13 03:59:53;;;;;;;6.87;5.73;;;;;;;;;;5013692;28;20447;-86
2021/06/13 04:02:21;;;;;;;5.57;5.07;;;15.40;99.90;;;;;;5013884;28;20511;-86
2021/06/13 04:04:51;;;;;;;5.93;5.33;;;15.40;99.90;;;;;;5014087;28;20448;-85
2021/06/13 04:07:19;;;;;;;8.60;5.23;;;15.40;99.90;;;;;;5013631;28;20540;-85
2021/06/13 04:09:47;;;;;;;7.10;5.50;;;;;;;;;;5012879;28;20925;-86
2021/06/13 04:12:16;;;;;;;7.43;5.50;;;15.50;99.90;;;;;;5013964;28;20496;-86
2021/06/13 04:14:45;;;;;;;6.93;5.00;;;15.70;99.90;;;;;;5013672;28;20449;-86
2021/06/13 04:17:14;;;;;;;8.07;5.00;;;15.50;99.90;;;;;;5013891;28;20448;-87
2021/06/13 04:19:42;;;;;;;10.33;5.53;;;15.60;99.90;;;;;;5013848;28;20457;-86
2021/06/13 04:22:12;;;;;;;8.33;5.40;;;15.30;99.90;;;;;;5014079;28;20470;-85
2021/06/13 04:24:39;;;;;;;8.97;4.33;;;;;;;;;;5012573;28;20454;-85
2021/06/13 04:27:07;;;;;;;7.00;5.23;;;15.60;99.90;;;;;;5009118;28;20448;-86
2021/06/13 04:29:34;;;;;;;7.17;5.00;;;;;;;;;;5013747;28;20468;-86
2021/06/13 04:32:03;;;;;;;6.83;4.83;;;15.60;99.90;;;;;;5014141;28;20487;-86
2021/06/13 04:34:30;;;;;;;10.47;4.43;;;;;;;;;;5013912;28;20452;-86
2021/06/13 04:36:57;;;;;;;5.20;4.60;;;;;;;;;;5013690;28;20452;-86
2021/06/13 04:39:26;;;;;;;6.67;4.57;;;;;;;;;;5012755;28;20451;-85
2021/06/13 04:41:53;;;;;;;7.63;5.20;;;;;;;;;;5014367;28;20451;-87
2021/06/13 04:44:20;;;;;;;8.23;5.00;;;;;;;;;;5014180;28;20452;-87
2021/06/13 04:46:48;;;;;;;8.47;4.77;;;15.80;99.90;;;;;;5014249;28;20940;-87
2021/06/13 04:49:17;;;;;;;6.33;4.93;;;15.80;99.90;;;;;;5014300;28;20440;-86
2021/06/13 04:51:47;;;;;;;6.83;5.03;;;15.80;99.90;;;;;;5011478;28;20440;-88
2021/06/13 04:54:36;;;;;;;7.30;4.90;;;15.40;99.90;;;;;;5009696;28;20459;-87
2021/06/13 04:57:42;;;;;;;7.80;5.27;;;15.80;99.90;;;;;;5003332;28;20805;-88
2021/06/13 05:00:10;;;;;;;8.10;5.10;;;;;;;;;;4986199;28;20451;-88
2021/06/13 05:02:37;;;;;;;5.53;4.90;;;;;;;;;;5009786;28;20445;-85
2021/06/13 05:05:07;;;;;;;6.57;5.20;;;15.80;99.90;;;;;;5014538;28;20436;-86
2021/06/13 05:07:35;;;;;;;10.40;5.07;;;;;;;;;;5017245;28;20820;-87
2021/06/13 05:10:03;;;;;;;6.47;4.80;;;;;;;;;;5016068;28;20442;-87
2021/06/13 05:12:30;;;;;;;6.83;4.93;;;;;;;;;;5014043;28;20554;-86
2021/06/13 05:14:57;;;;;;;9.67;5.63;;;15.70;99.90;;;;;;5014967;28;20440;-86
2021/06/13 05:17:25;;;;;;;9.57;5.40;;;;;;;;;;5013454;28;20436;-85
2021/06/13 05:19:57;;;;;;;7.83;5.00;;;15.80;99.90;;;;;;5014512;28;20463;-86
2021/06/13 05:22:37;;;;;;;12.53;6.63;;;16.00;99.90;;;;;;5017945;28;20440;-87
2021/06/13 05:25:07;;;;;;;5.77;4.90;;;16.00;99.90;;;;;;5015095;28;20494;-88
2021/06/13 05:27:36;;;;;;;8.93;4.70;;;;;;;;;;5012875;28;20515;-87
2021/06/13 05:30:05;;;;;;;5.10;4.60;;;16.30;99.90;;;;;;5017828;28;20849;-90
2021/06/13 05:32:32;;;;;;;8.37;4.30;;;;;;;;;;5017583;28;20488;-85
2021/06/13 05:34:59;;;;;;;4.23;3.77;;;;;;;;;;5018964;28;20440;-85
2021/06/13 05:37:26;;;;;;;6.70;4.43;;;;;;;;;;5017183;28;20453;-85
2021/06/13 05:39:54;;;;;;;4.73;3.60;;;18.20;99.90;;;;;;5015954;28;20948;-85
2021/06/13 05:42:22;;;;;;;6.60;3.87;;;;;;;;;;5016940;28;20436;-85
2021/06/13 05:44:50;;;;;;;5.53;4.80;;;18.50;99.90;;;;;;5015070;28;20793;-85
2021/06/13 05:47:17;;;;;;;7.67;4.77;;;;;;;;;;5017990;28;20447;-87
2021/06/13 05:49:45;;;;;;;7.13;3.40;;;;;;;;;;5018287;28;20451;-86
2021/06/13 05:52:11;;;;;;;8.90;3.80;;;19.70;99.90;;;;;;4971783;28;20879;-86
2021/06/13 05:54:39;;;;;;;7.27;4.00;;;20.00;99.90;;;;;;4963470;28;20528;-87
2021/06/13 05:57:08;;;;;;;7.83;4.80;;;20.60;99.90;;;;;;5018307;28;20455;-87
2021/06/13 05:59:35;;;;;;;5.63;3.90;;;;;;;;;;5017940;28;20440;-87
2021/06/13 06:02:03;;;;;;;5.30;3.90;;;;;;;;;;5018974;28;20453;-86
2021/06/13 06:04:30;;;;;;;5.70;4.10;;;20.60;99.90;;;;;;5018024;28;20440;-88
2021/06/13 06:06:58;;;;;;;4.60;4.10;;;20.00;99.90;;;;;;5014866;28;20472;-87
2021/06/13 06:09:25;;;;;;;7.77;4.00;;;20.30;99.90;;;;;;5013174;28;20448;-85
2021/06/13 06:11:51;;;;;;;4.17;3.80;;;20.60;99.90;;;;;;5016340;28;20482;-86
2021/06/13 06:14:20;;;;;;;7.97;4.30;;;20.40;99.90;;;;;;4966713;28;20515;-83
2021/06/13 06:16:47;;;;;;;5.27;3.83;;;;;;;;;;5017695;28;20522;-85
2021/06/13 06:19:13;;;;;;;8.03;4.17;;;19.90;99.90;;;;;;5016890;28;20448;-83
2021/06/13 06:21:40;;;;;;;6.67;3.43;;;19.90;99.90;;;;;;5016520;28;20440;-83
2021/06/13 06:24:07;;;;;;;5.83;3.40;;;20.30;99.90;;;;;;5012057;28;20804;-85
2021/06/13 06:26:34;;;;;;;7.60;3.70;;;20.90;99.90;;;;;;5012714;28;20440;-83
2021/06/13 06:29:02;;;;;;;4.47;3.70;;;;;;;;;;5016658;28;20444;-84
2021/06/13 06:31:30;;;;;;;4.80;3.33;;;21.10;99.10;;;;;;5017080;28;20445;-85
2021/06/13 06:33:57;;;;;;;5.53;3.27;;;21.40;99.90;;;;;;5012528;28;20492;-85
2021/06/13 06:36:24;;;;;;;3.73;3.20;;;;;;;;;;5009651;28;20464;-86
2021/06/13 06:38:51;;;;;;;5.07;3.50;;;;;;;;;;5015287;28;20536;-84
2021/06/13 06:41:20;;;;;;;4.63;3.60;;;21.30;99.90;;;;;;5016229;28;20444;-85
2021/06/13 06:43:46;;;;;;;6.07;3.07;;;21.40;99.90;;;;;;5012951;28;20822;-84
2021/06/13 06:46:13;;;;;;;4.80;3.10;;;21.40;99.90;;;;;;5015679;28;20468;-86
2021/06/13 06:48:41;;;;;;;4.10;3.37;;;21.80;99.90;;;;;;5016275;28;20449;-84
2021/06/13 06:51:11;;;;;;;4.20;3.10;;;21.40;97.50;;;;;;4981341;28;20472;-82
2021/06/13 06:53:41;;;;;;;5.53;3.00;;;22.00;97.30;;;;;;4953146;29;20498;-85
2021/06/13 06:56:15;;;;;;;6.33;3.47;;;22.20;99.90;;;;;;4955520;29;20447;-90
2021/06/13 06:58:43;;;;;;;4.00;3.17;;;;;;;;;;4954773;29;20466;-84
2021/06/13 07:01:12;;;;;;;5.33;3.33;;;21.70;97.30;;;;;;4952406;28;20447;-84
2021/06/13 07:03:42;;;;;;;5.27;3.47;;;22.60;97.70;;;;;;4953732;29;20439;-86
2021/06/13 07:06:15;;;;;;;4.20;2.93;;;22.60;99.90;;;;;;4951969;29;20451;-85
2021/06/13 07:08:42;;;;;;;5.33;3.50;;;;;;;;;;4953291;29;20479;-84
2021/06/13 07:11:12;;;;;;;3.83;2.97;;;22.30;99.90;;;;;;4964480;28;20449;-86
2021/06/13 07:13:39;;;;;;;7.90;3.30;;;22.40;99.90;;;;;;5016587;28;20495;-84
2021/06/13 07:16:06;;;;;;;3.83;3.40;;;22.50;99.90;;;;;;5016081;28;20947;-85
2021/06/13 07:18:33;;;;;;;5.00;3.30;;;23.00;99.90;;;;;;5010772;28;20936;-84
2021/06/13 07:21:01;;;;;;;5.60;2.90;;;22.70;96.50;;;;;;5013636;28;20452;-89
2021/06/13 07:23:28;;;;;;;9.53;3.20;;;;;;;;;;5016528;28;20448;-88
2021/06/13 07:25:55;;;;;;;5.23;3.10;;;23.00;99.90;;;;;;5014820;28;20444;-87
2021/06/13 07:28:22;;;;;;;5.30;3.90;;;;;;;;;;5016391;28;20444;-90
2021/06/13 07:30:49;;;;;;;6.47;3.90;;;23.10;99.90;;;;;;5016420;28;20457;-86
2021/06/13 07:33:16;;;;;;;4.73;3.77;;;23.10;99.90;;;;;;5015861;28;20483;-86
2021/06/13 07:35:44;;;;;;;5.13;3.87;;;;;;;;;;5016221;28;20447;-87
2021/06/13 07:38:12;;;;;;;5.50;4.07;;;22.60;99.90;;;;;;5015074;28;20464;-87
2021/06/13 07:40:39;;;;;;;5.33;3.50;;;;;;;;;;5018408;28;20463;-88
2021/06/13 07:43:06;;;;;;;4.40;4.00;;;21.90;99.90;;;;;;5017278;28;20441;-87
2021/06/13 07:45:34;;;;;;;5.70;3.70;;;;;;;;;;5015197;28;20530;-87
2021/06/13 07:48:01;;;;;;;5.00;4.00;;;22.70;99.90;;;;;;5013101;28;20447;-85
2021/06/13 07:50:28;;;;;;;6.50;3.77;;;;;;;;;;5016729;28;20440;-86
2021/06/13 07:52:55;;;;;;;5.57;2.77;;;22.60;99.90;;;;;;5017205;28;20500;-86
2021/06/13 07:55:23;;;;;;;5.30;3.87;;;22.80;96.60;;;;;;5016021;28;20448;-88
2021/06/13 07:57:50;;;;;;;4.97;3.67;;;23.10;99.90;;;;;;5012818;28;20455;-89
2021/06/13 08:00:19;;;;;;;4.97;3.63;;;23.00;99.90;;;;;;5013173;28;20452;-92
2021/06/13 08:02:47;;;;;;;5.40;3.60;;;;;;;;;;5010725;28;20459;-81
2021/06/13 08:05:16;;;;;;;4.50;4.10;;;;;;;;;;5015586;28;20436;-86
2021/06/13 08:07:47;;;;;;;5.93;4.07;;;;;;;;;;4998114;28;20522;-86
2021/06/13 08:10:15;;;;;;;4.83;3.67;;;22.90;99.90;;;;;;5011886;28;20440;-87
2021/06/13 08:12:44;;;;;;;3.90;3.30;;;22.60;99.90;;;;;;5014616;28;20444;-85
2021/06/13 08:15:19;;;;;;;5.17;4.13;;;;;;;;;;5011988;28;20490;-92
2021/06/13 08:17:47;;;;;;;8.23;3.73;;;;;;;;;;5017517;28;20478;-88
2021/06/13 08:20:18;;;;;;;6.87;3.77;;;23.60;93.50;;;;;;5018051;28;20519;-85
2021/06/13 08:22:48;;;;;;;6.13;3.63;;;23.30;93.60;;;;;;5015402;28;20449;-83
2021/06/13 08:25:19;;;;;;;4.50;3.80;;;23.20;99.90;;;;;;5003079;28;20915;-88
2021/06/13 08:27:55;;;;;;;4.33;3.80;;;;;;;;;;5012230;28;20508;-87
2021/06/13 08:30:22;;;;;;;4.57;4.13;;;;;;;;;;5013512;28;20478;-87
2021/06/13 08:32:52;;;;;;;7.90;4.90;;;;;;;;;;5013870;28;20547;-87
2021/06/13 08:35:19;;;;;;;3.80;3.20;;;23.70;99.90;;;;;;5013603;28;20444;-85
2021/06/13 08:37:47;;;;;;;3.80;3.50;;;;;;;;;;5009666;28;20445;-85
2021/06/13 08:40:14;;;;;;;4.70;3.97;;;;;;;;;;5012671;28;20444;-84
2021/06/13 08:42:43;;;;;;;5.73;3.93;;;23.80;94.20;;;;;;5013908;28;20816;-87
2021/06/13 08:45:14;;;;;;;6.57;3.63;;;23.70;94.50;;;;;;5010723;28;20460;-88
2021/06/13 08:47:41;;;;;;;4.07;3.20;;;;;;;;;;5011380;28;20444;-89
2021/06/13 08:50:11;;;;;;;4.30;3.67;;;24.70;90.90;;;;;;5010252;28;20436;-86
2021/06/13 08:52:38;;;;;;;3.77;3.47;;;24.70;99.90;;;;;;5006548;28;20445;-88
2021/06/13 08:55:07;;;;;;;3.50;3.20;;;23.70;98.90;;;;;;5013644;28;20492;-86
2021/06/13 08:57:34;;;;;;;5.00;3.50;;;;;;;;;;4997204;28;20457;-81
2021/06/13 09:00:01;;;;;;;3.87;3.57;;;23.70;99.90;;;;;;4990527;28;20491;-83
2021/06/13 09:02:29;;;;;;;5.50;3.23;;;23.90;99.80;;;;;;4990043;28;21252;-85
2021/06/13 09:04:56;;;;;;;4.23;3.47;;;24.10;97.70;;;;;;4988135;28;20812;-85
2021/06/13 09:07:24;;;;;;;7.27;4.10;;;24.20;92.80;;;;;;4989603;28;20480;-81
2021/06/13 09:09:52;;;;;;;5.90;3.50;;;23.70;93.40;;;;;;4993098;28;20476;-83
2021/06/13 09:12:19;;;;;;;4.90;4.00;;;24.30;99.40;;;;;;4994097;28;20929;-80
2021/06/13 09:14:49;;;;;;;5.37;3.80;;;24.10;92.30;;;;;;4989151;28;20489;-83
2021/06/13 09:17:19;;;;;;;4.43;3.23;;;24.10;91.20;;;;;;4988402;28;20457;-85
2021/06/13 09:20:08;;;;;;;5.20;3.07;;;23.50;99.90;;;;;;4994375;28;20941;-85
2021/06/13 09:22:37;;;;;;;3.53;3.23;;;24.10;99.90;;;;;;4992834;28;20450;-85
2021/06/13 09:25:13;;;;;;;5.70;3.40;;;24.80;92.80;;;;;;4993486;28;20500;-89
2021/06/13 09:27:41;;;;;;;5.03;3.40;;;24.70;94.00;;;;;;4995204;28;20449;-83
2021/06/13 09:30:10;;;;;;;4.80;3.30;;;24.10;93.50;;;;;;4990118;28;20463;-85
2021/06/13 09:33:03;;;;;;;3.97;3.57;;;24.50;92.10;;;;;;4991892;28;20941;-85
2021/06/13 09:35:32;;;;;;;5.00;4.00;;;24.40;94.80;;;;;;4984153;28;20457;-85
2021/06/13 09:38:19;;;;;;;3.80;3.50;;;22.90;99.90;;;;;;4992608;28;20570;-83
2021/06/13 09:40:51;;;;;;;7.20;3.60;;;23.60;93.50;;;;;;4989156;28;20452;-87
2021/06/13 09:43:24;;;;;;;4.50;3.87;;;22.80;92.50;;;;;;4991217;28;20491;-80
2021/06/13 09:45:54;;;;;;;8.43;3.70;;;23.80;92.40;;;;;;4973333;28;20818;-84
2021/06/13 09:48:22;;;;;;;5.90;3.73;;;23.90;97.00;;;;;;4973526;28;20458;-85
2021/06/13 09:50:54;;;;;;;7.23;3.10;;;24.70;98.10;;;;;;4974817;28;20454;-86
2021/06/13 09:53:30;;;;;;;4.80;3.10;;;24.50;93.00;;;;;;4974300;28;20453;-85
2021/06/13 09:56:20;;;;;;;5.00;3.27;;;25.10;93.40;;;;;;4977962;28;20461;-89
2021/06/13 09:58:58;;;;;;;5.10;3.60;;;25.30;99.20;;;;;;4985472;28;20817;-87
2021/06/13 10:01:31;;;;;;;6.20;3.60;;;25.00;99.90;;;;;;4984632;28;20446;-89
2021/06/13 10:03:59;;;;;;;5.23;3.17;;;;;;;;;;4983680;28;20445;-89
2021/06/13 10:06:32;;;;;;;7.00;2.80;;;25.10;99.90;;;;;;4996773;28;20449;-93
2021/06/13 10:08:59;;;;;;;4.23;2.77;;;25.50;97.60;;;;;;4995851;28;20516;-86
2021/06/13 10:11:26;;;;;;;6.30;2.77;;;;;;;;;;4996481;28;20449;-88
2021/06/13 10:13:55;;;;;;;2.77;2.57;;;25.70;90.40;;;;;;4996502;28;20525;-85
2021/06/13 10:16:34;;;;;;;4.47;2.80;;;25.70;88.00;;;;;;4997419;28;20449;-87
2021/06/13 10:19:07;;;;;;;3.10;2.80;;;25.80;87.30;;;;;;4994175;28;20440;-88
2021/06/13 10:21:37;;;;;;;4.30;3.17;;;25.30;99.90;;;;;;4997103;28;20521;-91
2021/06/13 10:24:10;;;;;;;3.20;2.90;;;24.90;88.70;;;;;;4996905;28;20499;-91
2021/06/13 10:26:39;;;;;;;3.40;2.77;;;24.90;99.50;;;;;;4996111;28;20957;-88
2021/06/13 10:29:07;;;;;;;3.00;2.63;;;24.80;91.20;;;;;;4961850;28;20456;-85
2021/06/13 10:31:34;;;;;;;5.00;3.07;;;;;;;;;;4996057;28;20453;-83
2021/06/13 10:34:02;;;;;;;3.53;2.23;;;;;;;;;;4996406;28;20477;-83
2021/06/13 10:36:33;;;;;;;2.93;2.70;;;25.00;85.20;;;;;;4996334;28;20457;-84
2021/06/13 10:39:02;;;;;;;3.60;2.73;;;25.40;98.10;;;;;;4992783;28;20506;-83
2021/06/13 10:41:28;;;;;;;3.80;2.77;;;25.80;99.90;;;;;;4991565;28;20917;-84
2021/06/13 10:44:04;;;;;;;3.93;3.20;;;26.10;96.70;;;;;;4995759;28;20455;-84
2021/06/13 10:46:33;;;;;;;2.93;2.63;;;26.00;86.10;;;;;;4996292;28;20441;-84
2021/06/13 10:49:02;;;;;;;2.73;2.40;;;27.60;85.80;;;;;;4996465;28;20456;-85
2021/06/13 10:51:41;;;;;;;4.00;2.97;;;26.10;87.50;;;;;;4993792;28;20448;-84
2021/06/13 10:54:27;;;;;;;4.57;2.60;;;26.70;88.90;;;;;;4960875;28;20476;-85
2021/06/13 10:56:56;;;;;;;4.00;3.40;;;25.90;88.50;;;;;;4996825;28;20446;-88
2021/06/13 10:59:23;;;;;;;6.40;4.23;;;;;;;;;;4995587;28;20454;-84
2021/06/13 11:01:59;;;;;;;7.63;3.17;;;26.10;86.30;;;;;;4995737;28;20548;-84
2021/06/13 11:04:46;;;;;;;3.13;2.83;;;26.20;99.40;;;;;;4995917;28;20496;-85
2021/06/13 11:07:28;;;;;;;4.20;2.43;;;25.80;82.60;;;;;;4992396;28;20508;-82
2021/06/13 11:10:17;;;;;;;2.90;2.00;;;26.30;93.50;;;;;;4994913;28;20453;-83
2021/06/13 11:12:47;;;;;;;5.80;2.43;;;26.10;77.00;;;;;;4992786;28;20865;-89
2021/06/13 11:15:18;;;;;;;4.00;2.47;;;25.50;93.60;;;;;;4990381;28;20489;-85
2021/06/13 11:17:56;;;;;;;32.87;21.50;;;25.40;80.20;;;;;;4997491;28;21020;-91
2021/06/13 11:20:35;;;;;;;5.70;2.70;;;26.00;84.00;;;;;;4996839;28;20444;-85
2021/06/13 11:23:03;;;;;;;3.70;2.57;;;26.10;83.00;;;;;;4996148;28;20461;-87
2021/06/13 11:25:36;;;;;;;3.60;2.67;;;25.40;93.00;;;;;;4996966;28;20464;-84
2021/06/13 11:28:18;;;;;;;2.77;2.40;;;25.90;96.50;;;;;;4942116;28;20564;-88
2021/06/13 11:30:47;;;;;;;9.37;2.97;;;26.00;78.90;;;;;;4995142;28;20492;-85
2021/06/13 11:33:33;;;;;;;2.93;2.67;;;25.80;77.50;;;;;;4998700;28;20448;-85
2021/06/13 11:36:00;;;;;;;3.10;2.40;;;25.30;99.00;;;;;;4996715;28;20574;-87
2021/06/13 11:38:29;;;;;;;7.50;2.97;;;25.50;96.60;;;;;;4998021;28;20434;-84
2021/06/13 11:41:00;;;;;;;2.40;2.20;;;25.80;82.70;;;;;;5001356;28;20445;-84
2021/06/13 11:43:31;;;;;;;2.80;2.20;;;25.90;98.50;;;;;;5007553;28;20440;-86
2021/06/13 11:46:02;;;;;;;2.67;2.33;;;25.40;83.90;;;;;;5012447;28;20449;-84
2021/06/13 11:48:31;;;;;;;2.90;2.30;;;25.10;94.80;;;;;;5011014;28;20437;-85
2021/06/13 11:51:12;;;;;;;5.83;2.30;;;26.00;99.20;;;;;;5013416;28;20430;-84
2021/06/13 11:53:56;;;;;;;5.27;2.30;;;25.90;98.50;;;;;;5012857;28;20493;-84
2021/06/13 11:56:45;;;;;;;3.67;2.30;;;25.60;94.90;;;;;;5007013;28;20504;-84
2021/06/13 11:59:16;;;;;;;3.87;2.23;;;26.20;97.30;;;;;;5009108;28;20445;-82
2021/06/13 12:01:52;;;;;;;3.33;2.20;;;25.50;75.40;;;;;;5010393;28;20433;-82
2021/06/13 12:04:20;;;;;;;3.87;3.07;;;;;;;;;;5009643;28;20445;-83
2021/06/13 12:06:47;;;;;;;3.60;2.50;;;25.20;93.90;;;;;;5005300;28;20538;-83
2021/06/13 12:09:16;;;;;;;5.20;2.90;;;25.60;97.40;;;;;;5005992;28;20468;-83
2021/06/13 12:11:49;;;;;;;2.83;2.10;;;25.80;94.00;;;;;;5007003;28;20513;-85
2021/06/13 12:14:21;;;;;;;10.00;3.50;;;25.70;78.90;;;;;;5012390;28;20484;-85
2021/06/13 12:16:48;;;;;;;4.03;2.07;;;;;;;;;;5009667;28;20445;-87
2021/06/13 12:19:16;;;;;;;3.50;3.07;;;26.20;81.10;;;;;;5012832;28;20449;-85
2021/06/13 12:22:14;;;;;;;2.77;2.37;;;26.30;73.00;;;;;;5013175;28;20757;-83
2021/06/13 12:27:22;;;;;;;4.40;2.20;;;25.50;90.90;;;;;;4947968;29;20448;-83
2021/06/13 12:27:40;;;;;;;4.07;3.67;;;26.20;84.60;;;;;;5007735;28;20438;-83
2021/06/13 12:30:12;;;;;;;5.77;2.87;;;26.20;91.90;;;;;;5009313;28;20449;-83
2021/06/13 12:32:39;;;;;;;2.30;2.10;;;26.70;93.80;;;;;;5004180;28;20469;-83
2021/06/13 12:35:09;;;;;;;1.93;1.83;;;26.10;75.10;;;;;;5011239;28;20508;-81
2021/06/13 12:37:37;;;;;;;2.90;2.00;;;25.70;91.20;;;;;;5011691;28;20441;-82
2021/06/13 12:40:06;;;;;;;2.07;1.90;;;26.40;74.00;;;;;;5011643;28;20441;-83
2021/06/13 12:42:34;;;;;;;3.00;2.10;;;26.50;71.30;;;;;;5008195;28;20471;-83
2021/06/13 12:45:05;;;;;;;2.73;2.33;;;26.70;76.80;;;;;;5015155;28;20455;-83
2021/06/13 12:47:32;;;;;;;3.00;1.97;;;26.30;95.60;;;;;;5015379;28;20421;-83
2021/06/13 12:49:59;;;;;;;2.93;1.93;;;25.90;89.20;;;;;;5017538;28;20453;-89
2021/06/13 12:52:28;;;;;;;3.33;1.97;;;26.50;93.60;;;;;;5012955;28;20420;-85
2021/06/13 12:55:01;;;;;;;4.17;1.93;;;26.70;71.40;;;;;;5009612;28;20472;-85
2021/06/13 12:57:29;;;;;;;2.93;2.50;;;26.00;92.00;;;;;;5014338;28;20473;-83
2021/06/13 12:59:57;;;;;;;2.63;2.40;;;25.50;77.00;;;;;;5015818;28;20437;-86
2021/06/13 13:02:26;;;;;;;2.37;1.90;;;26.00;88.20;;;;;;5014385;28;20441;-86
2021/06/13 13:04:55;;;;;;;4.43;1.90;;;26.30;93.70;;;;;;5015197;28;20443;-85
2021/06/13 13:07:31;;;;;;;2.90;2.60;;;26.40;74.80;;;;;;5014779;28;20481;-84
2021/06/13 13:10:13;;;;;;;3.07;2.33;;;26.20;75.10;;;;;;5014398;28;20440;-83
2021/06/13 13:12:41;;;;;;;2.73;1.97;;;26.30;94.90;;;;;;5014936;28;20448;-83
2021/06/13 13:15:14;;;;;;;2.07;1.87;;;26.70;74.60;;;;;;5012327;28;20500;-82
2021/06/13 13:17:43;;;;;;;2.63;1.80;;;26.50;93.00;;;;;;5015789;28;20968;-85
2021/06/13 13:20:15;;;;;;;2.80;1.60;;;26.90;85.60;;;;;;5015266;28;20514;-85
2021/06/13 13:22:45;;;;;;;1.90;1.80;;;27.10;89.50;;;;;;5015490;28;20472;-83
2021/06/13 13:25:14;;;;;;;1.80;1.70;;;26.20;87.50;;;;;;5014066;28;20452;-83
2021/06/13 13:27:41;;;;;;;3.73;1.93;;;;;;;;;;5017587;28;20453;-83
2021/06/13 13:30:30;;;;;;;2.17;1.97;;;26.00;80.20;;;;;;5017420;28;20441;-83